createdAt,value
2018-01-10T00:01:36.498Z,46.50
2018-01-10T00:04:04.067Z,45.90
2018-01-10T00:06:31.523Z,45.90
2018-01-10T00:08:59.013Z,46.10
2018-01-10T00:11:26.465Z,46.10
2018-01-10T00:13:54.104Z,46.20
2018-01-10T00:16:21.561Z,46.20
2018-01-10T00:18:49.180Z,46.30
2018-01-10T00:21:16.787Z,47.00
2018-01-10T00:23:44.259Z,46.40
2018-01-10T00:26:11.721Z,46.50
2018-01-10T00:28:39.419Z,46.50
2018-01-10T00:31:06.949Z,46.50
2018-01-10T00:33:34.409Z,46.60
2018-01-10T00:36:01.874Z,46.70
2018-01-10T00:38:29.345Z,46.70
2018-01-10T00:40:56.798Z,46.80
2018-01-10T00:43:24.291Z,46.80
2018-01-10T00:45:51.764Z,46.90
2018-01-10T00:48:19.236Z,47.00
2018-01-10T00:50:46.955Z,47.00
2018-01-10T00:53:14.422Z,47.00
2018-01-10T00:55:41.897Z,47.10
2018-01-10T00:58:09.726Z,47.10
2018-01-10T01:00:37.360Z,47.10
2018-01-10T01:03:05.022Z,47.10
2018-01-10T01:05:33.237Z,47.20
2018-01-10T01:08:00.729Z,47.10
2018-01-10T01:10:28.362Z,47.20
2018-01-10T01:12:55.837Z,47.20
2018-01-10T01:15:23.309Z,47.20
2018-01-10T01:17:50.769Z,47.40
2018-01-10T01:20:18.445Z,47.30
2018-01-10T01:22:45.973Z,48.10
2018-01-10T01:25:13.432Z,47.40
2018-01-10T01:27:41.015Z,47.40
2018-01-10T01:30:08.470Z,47.40
2018-01-10T01:32:36.104Z,47.40
2018-01-10T01:35:03.682Z,47.60
2018-01-10T01:37:31.149Z,47.60
2018-01-10T01:39:58.812Z,47.60
2018-01-10T01:42:26.297Z,47.50
2018-01-10T01:44:54.748Z,47.50
2018-01-10T01:47:22.370Z,47.50
2018-01-10T01:49:50.019Z,47.50
2018-01-10T01:52:17.613Z,47.50
2018-01-10T01:54:45.084Z,47.50
2018-01-10T01:57:12.644Z,47.50
2018-01-10T01:59:40.289Z,47.50
2018-01-10T02:02:07.736Z,47.60
2018-01-10T02:04:35.218Z,47.70
2018-01-10T02:07:02.670Z,47.60
2018-01-10T02:09:30.145Z,47.60
2018-01-10T02:11:57.838Z,47.60
2018-01-10T02:14:25.637Z,47.60
2018-01-10T02:16:53.105Z,47.70
2018-01-10T02:19:20.608Z,47.60
2018-01-10T02:21:48.064Z,47.70
2018-01-10T02:24:15.606Z,47.60
2018-01-10T02:26:43.250Z,48.40
2018-01-10T02:29:10.744Z,47.80
2018-01-10T02:31:38.180Z,47.80
2018-01-10T02:34:05.662Z,47.90
2018-01-10T02:36:33.108Z,47.90
2018-01-10T02:39:01.350Z,47.90
2018-01-10T02:41:28.844Z,47.90
2018-01-10T02:43:56.365Z,47.90
2018-01-10T02:46:23.829Z,48.00
2018-01-10T02:48:51.285Z,48.10
2018-01-10T02:51:18.741Z,48.10
2018-01-10T02:53:46.408Z,48.10
2018-01-10T02:56:13.862Z,48.10
2018-01-10T02:58:41.605Z,48.10
2018-01-10T03:01:09.232Z,48.10
2018-01-10T03:03:36.768Z,48.10
2018-01-10T03:06:04.205Z,48.10
2018-01-10T03:08:31.676Z,48.20
2018-01-10T03:10:59.150Z,48.20
2018-01-10T03:13:26.935Z,48.20
2018-01-10T03:15:54.559Z,48.30
2018-01-10T03:18:22.137Z,48.30
2018-01-10T03:20:49.596Z,48.30
2018-01-10T03:23:17.297Z,48.30
2018-01-10T03:25:44.746Z,48.30
2018-01-10T03:28:12.284Z,48.30
2018-01-10T03:30:39.742Z,48.40
2018-01-10T03:33:07.232Z,48.40
2018-01-10T03:35:34.684Z,48.40
2018-01-10T03:38:02.337Z,48.40
2018-01-10T03:40:29.786Z,48.40
2018-01-10T03:42:57.249Z,48.40
2018-01-10T03:45:24.708Z,48.50
2018-01-10T03:47:52.159Z,48.50
2018-01-10T03:50:23.539Z,48.50
2018-01-10T03:52:51.084Z,48.50
2018-01-10T03:55:18.561Z,48.50
2018-01-10T03:57:46.021Z,48.60
2018-01-10T04:00:13.480Z,48.60
2018-01-10T04:02:40.932Z,48.50
2018-01-10T04:05:08.424Z,48.50
2018-01-10T04:07:35.914Z,48.50
2018-01-10T04:10:03.402Z,48.50
2018-01-10T04:12:30.994Z,48.50
2018-01-10T04:14:58.438Z,48.50
2018-01-10T04:17:25.897Z,48.50
2018-01-10T04:19:54.352Z,48.50
2018-01-10T04:22:21.810Z,48.50
2018-01-10T04:24:49.264Z,48.40
2018-01-10T04:27:17.522Z,48.40
2018-01-10T04:29:45.073Z,48.40
2018-01-10T04:32:13.324Z,48.50
2018-01-10T04:34:40.913Z,48.50
2018-01-10T04:37:08.429Z,48.40
2018-01-10T04:39:36.208Z,48.50
2018-01-10T04:42:03.666Z,48.50
2018-01-10T04:44:31.120Z,48.40
2018-01-10T04:46:58.562Z,48.40
2018-01-10T04:49:26.021Z,48.40
2018-01-10T04:51:53.478Z,48.30
2018-01-10T04:54:20.932Z,48.20
2018-01-10T04:56:48.435Z,48.30
2018-01-10T04:59:16.218Z,48.30
2018-01-10T05:01:43.685Z,48.30
2018-01-10T05:04:11.332Z,48.30
2018-01-10T05:06:38.909Z,48.30
2018-01-10T05:09:06.370Z,48.30
2018-01-10T05:11:33.995Z,48.30
2018-01-10T05:14:01.497Z,48.30
2018-01-10T05:16:29.080Z,48.30
2018-01-10T05:18:56.541Z,48.30
2018-01-10T05:21:23.992Z,48.30
2018-01-10T05:23:51.579Z,48.30
2018-01-10T05:26:19.200Z,48.30
2018-01-10T05:28:46.817Z,48.30
2018-01-10T05:31:14.281Z,47.80
2018-01-10T05:33:41.876Z,47.60
2018-01-10T05:36:09.330Z,46.50
2018-01-10T05:38:36.897Z,45.30
2018-01-10T05:41:04.383Z,41.10
2018-01-10T05:43:32.916Z,39.10
2018-01-10T05:46:00.389Z,39.10
2018-01-10T05:48:27.890Z,38.80
2018-01-10T05:50:55.480Z,38.70
2018-01-10T05:53:22.962Z,39.00
2018-01-10T05:55:50.429Z,39.20
2018-01-10T05:58:18.121Z,39.60
2018-01-10T06:00:46.357Z,39.60
2018-01-10T06:03:13.850Z,39.60
2018-01-10T06:05:41.335Z,39.80
2018-01-10T06:08:08.793Z,39.70
2018-01-10T06:10:36.494Z,40.90
2018-01-10T06:13:03.952Z,42.10
2018-01-10T06:15:31.715Z,44.20
2018-01-10T06:17:59.192Z,45.30
2018-01-10T06:20:26.673Z,44.70
2018-01-10T06:22:54.273Z,43.90
2018-01-10T06:25:21.873Z,44.60
2018-01-10T06:27:49.577Z,44.50
2018-01-10T06:30:17.082Z,45.40
2018-01-10T06:32:44.544Z,46.60
2018-01-10T06:35:12.044Z,45.20
2018-01-10T06:37:39.694Z,45.30
2018-01-10T06:40:07.165Z,44.90
2018-01-10T06:42:34.677Z,45.30
2018-01-10T06:45:02.386Z,46.40
2018-01-10T06:47:29.833Z,46.40
2018-01-10T06:49:57.523Z,45.90
2018-01-10T06:52:25.006Z,45.90
2018-01-10T06:54:52.584Z,46.10
2018-01-10T06:57:20.035Z,46.20
2018-01-10T06:59:47.499Z,46.40
2018-01-10T07:02:15.165Z,46.30
2018-01-10T07:04:42.625Z,46.20
2018-01-10T07:07:10.181Z,46.20
2018-01-10T07:09:37.820Z,46.20
2018-01-10T07:12:05.296Z,46.30
2018-01-10T07:14:32.750Z,46.40
2018-01-10T07:17:00.211Z,46.50
2018-01-10T07:19:27.676Z,46.60
2018-01-10T07:21:55.233Z,46.60
2018-01-10T07:24:22.788Z,46.70
2018-01-10T07:26:50.452Z,46.80
2018-01-10T07:29:17.952Z,46.80
2018-01-10T07:31:45.670Z,46.90
2018-01-10T07:34:13.133Z,47.00
2018-01-10T07:36:40.908Z,46.90
2018-01-10T07:39:08.543Z,47.00
2018-01-10T07:41:36.039Z,47.10
2018-01-10T07:44:03.582Z,47.10
2018-01-10T07:46:31.056Z,47.10
2018-01-10T07:48:58.520Z,47.10
2018-01-10T07:51:26.159Z,47.20
2018-01-10T07:53:53.621Z,47.30
2018-01-10T07:56:21.085Z,47.30
2018-01-10T07:58:48.574Z,47.30
2018-01-10T08:01:16.101Z,47.30
2018-01-10T08:03:43.571Z,47.40
2018-01-10T08:06:11.040Z,47.40
2018-01-10T08:08:38.778Z,47.40
2018-01-10T08:11:06.250Z,47.40
2018-01-10T08:13:33.724Z,47.40
2018-01-10T08:16:01.198Z,47.40
2018-01-10T08:18:28.812Z,47.50
2018-01-10T08:20:56.366Z,47.50
2018-01-10T08:23:23.837Z,47.50
2018-01-10T08:25:51.314Z,47.50
2018-01-10T08:28:19.078Z,47.50
2018-01-10T08:30:46.747Z,47.60
2018-01-10T08:33:14.293Z,47.60
2018-01-10T08:35:41.772Z,47.50
2018-01-10T08:38:09.513Z,47.60
2018-01-10T08:40:37.144Z,47.60
2018-01-10T08:43:04.735Z,47.60
2018-01-10T08:45:32.203Z,47.60
2018-01-10T08:47:59.810Z,47.60
2018-01-10T08:50:27.359Z,47.60
2018-01-10T08:52:54.808Z,47.60
2018-01-10T08:55:22.282Z,47.60
2018-01-10T08:57:49.740Z,47.70
2018-01-10T09:00:17.205Z,47.70
2018-01-10T09:02:44.705Z,47.70
2018-01-10T09:05:12.344Z,47.60
2018-01-10T09:07:39.924Z,47.50
2018-01-10T09:10:07.693Z,47.50
2018-01-10T09:12:35.454Z,47.50
2018-01-10T09:15:02.930Z,47.50
2018-01-10T09:17:30.701Z,47.50
2018-01-10T09:19:58.172Z,47.40
2018-01-10T09:22:25.633Z,47.40
2018-01-10T09:24:53.365Z,47.40
2018-01-10T09:27:20.980Z,47.40
2018-01-10T09:29:48.506Z,47.40
2018-01-10T09:32:15.956Z,47.40
2018-01-10T09:34:43.419Z,47.50
2018-01-10T09:37:10.893Z,47.50
2018-01-10T09:39:38.429Z,47.50
2018-01-10T09:42:05.906Z,47.50
2018-01-10T09:44:33.490Z,47.40
2018-01-10T09:47:00.942Z,47.40
2018-01-10T09:49:28.414Z,47.40
2018-01-10T09:51:55.952Z,47.50
2018-01-10T09:54:23.406Z,47.60
2018-01-10T09:56:50.868Z,47.50
2018-01-10T09:59:18.321Z,47.50
2018-01-10T10:01:45.784Z,47.50
2018-01-10T10:04:13.240Z,47.50
2018-01-10T10:06:40.774Z,47.60
2018-01-10T10:09:08.432Z,47.60
2018-01-10T10:11:36.891Z,47.70
2018-01-10T10:14:04.377Z,47.70
2018-01-10T10:16:31.853Z,47.70
2018-01-10T10:18:59.328Z,47.70
2018-01-10T10:21:26.821Z,47.70
2018-01-10T10:23:54.485Z,47.70
2018-01-10T10:26:21.964Z,47.70
2018-01-10T10:28:49.423Z,47.70
2018-01-10T10:31:17.148Z,47.70
2018-01-10T10:33:44.796Z,47.70
2018-01-10T10:36:12.402Z,47.80
2018-01-10T10:38:39.868Z,47.70
2018-01-10T10:41:07.567Z,47.70
2018-01-10T10:43:35.073Z,47.80
2018-01-10T10:46:02.728Z,47.80
2018-01-10T10:48:30.305Z,47.80
2018-01-10T11:09:23.471Z,48.70
2018-01-10T11:11:50.938Z,48.70
2018-01-10T11:14:18.505Z,48.50
2018-01-10T11:16:45.992Z,48.50
2018-01-10T11:19:13.558Z,48.40
2018-01-10T11:21:41.172Z,48.40
2018-01-10T11:24:08.652Z,48.30
2018-01-10T11:26:36.137Z,48.30
2018-01-10T11:29:03.654Z,48.30
2018-01-10T11:31:31.126Z,48.10
2018-01-10T11:33:58.597Z,48.10
2018-01-10T11:36:26.069Z,48.10
2018-01-10T11:38:53.699Z,48.10
2018-01-10T11:41:21.186Z,48.10
2018-01-10T11:43:48.653Z,48.10
2018-01-10T11:46:16.121Z,48.10
2018-01-10T11:48:44.494Z,48.20
2018-01-10T11:51:11.957Z,48.20
2018-01-10T11:53:39.500Z,48.20
2018-01-10T11:56:07.426Z,48.20
2018-01-10T11:58:34.873Z,48.20
2018-01-10T12:01:02.360Z,48.10
2018-01-10T12:03:29.818Z,48.10
2018-01-10T12:05:57.399Z,48.10
2018-01-10T12:08:25.174Z,48.10
2018-01-10T12:10:52.700Z,48.00
2018-01-10T12:13:20.263Z,48.00
2018-01-10T12:15:47.832Z,48.00
2018-01-10T12:18:15.302Z,48.00
2018-01-10T12:20:42.951Z,47.90
2018-01-10T12:23:10.425Z,47.90
2018-01-10T12:25:37.977Z,48.00
2018-01-10T12:28:05.433Z,48.00
2018-01-10T12:30:33.082Z,48.00
2018-01-10T12:33:00.543Z,47.80
2018-01-10T12:35:28.025Z,47.80
2018-01-10T12:37:55.483Z,47.60
2018-01-10T12:40:23.964Z,47.80
2018-01-10T12:42:51.717Z,47.80
2018-01-10T12:45:19.493Z,48.20
2018-01-10T12:47:46.958Z,48.00
2018-01-10T12:50:14.413Z,48.30
2018-01-10T12:52:42.055Z,48.50
2018-01-10T12:55:09.630Z,48.30
2018-01-10T12:57:37.109Z,48.30
2018-01-10T13:00:04.729Z,48.20
2018-01-10T13:02:32.185Z,48.10
2018-01-10T13:04:59.783Z,48.20
2018-01-10T13:07:27.415Z,48.40
2018-01-10T13:09:54.866Z,48.50
2018-01-10T13:12:22.342Z,49.60
2018-01-10T13:14:49.817Z,48.90
2018-01-10T13:17:17.284Z,49.00
2018-01-10T13:19:44.825Z,48.80
2018-01-10T13:22:12.460Z,47.10
2018-01-10T13:24:39.917Z,47.30
2018-01-10T13:27:07.430Z,47.60
2018-01-10T13:29:34.876Z,47.70
2018-01-10T13:32:02.344Z,47.90
2018-01-10T13:34:29.807Z,47.90
2018-01-10T13:36:57.274Z,47.90
2018-01-10T13:39:24.840Z,48.10
2018-01-10T13:41:52.503Z,48.10
2018-01-10T13:44:19.973Z,48.10
2018-01-10T13:46:47.482Z,48.10
2018-01-10T13:49:15.260Z,48.10
2018-01-10T13:51:42.721Z,48.30
2018-01-10T13:54:10.344Z,48.30
2018-01-10T13:56:37.800Z,48.30
2018-01-10T13:59:05.265Z,48.30
2018-01-10T14:01:32.734Z,48.30
2018-01-10T14:04:00.332Z,48.30
2018-01-10T14:06:27.926Z,48.30
2018-01-10T14:08:55.397Z,48.30
2018-01-10T14:11:22.853Z,48.30
2018-01-10T14:13:50.365Z,48.30
2018-01-10T14:16:17.817Z,48.30
2018-01-10T14:18:45.301Z,48.40
2018-01-10T14:21:12.748Z,48.40
2018-01-10T14:23:40.227Z,48.30
2018-01-10T14:26:07.696Z,48.20
2018-01-10T14:28:35.171Z,48.30
2018-01-10T14:31:02.824Z,48.30
2018-01-10T14:33:30.405Z,48.50
2018-01-10T14:35:58.045Z,48.50
2018-01-10T14:38:25.530Z,48.60
2018-01-10T14:40:53.159Z,48.50
2018-01-10T14:43:20.850Z,48.80
2018-01-10T14:45:48.631Z,49.90
2018-01-10T14:48:16.377Z,49.20
2018-01-10T14:50:43.861Z,49.00
2018-01-10T14:53:11.602Z,48.80
2018-01-10T14:55:39.398Z,49.00
2018-01-10T14:58:07.055Z,49.00
2018-01-10T15:00:34.528Z,49.00
2018-01-10T15:03:01.990Z,49.00
2018-01-10T15:05:29.474Z,48.80
2018-01-10T15:07:56.938Z,48.70
2018-01-10T15:10:24.439Z,48.70
2018-01-10T15:12:52.106Z,48.70
2018-01-10T15:15:19.583Z,48.70
2018-01-10T15:17:47.037Z,48.70
2018-01-10T15:20:14.583Z,48.80
2018-01-10T15:22:42.241Z,48.70
2018-01-10T15:25:09.809Z,48.70
2018-01-10T15:27:37.564Z,48.70
2018-01-10T15:30:05.326Z,48.60
2018-01-10T15:32:32.958Z,48.60
2018-01-10T15:35:00.484Z,48.60
2018-01-10T15:37:28.003Z,48.60
2018-01-10T15:39:55.777Z,48.70
2018-01-10T15:42:23.530Z,48.70
2018-01-10T15:44:50.990Z,48.70
2018-01-10T15:47:18.755Z,48.70
2018-01-10T15:49:46.227Z,48.60
2018-01-10T15:52:13.989Z,48.70
2018-01-10T15:54:41.584Z,48.70
2018-01-10T15:57:09.094Z,48.70
2018-01-10T15:59:36.656Z,48.70
2018-01-10T16:02:04.165Z,48.60
2018-01-10T16:04:31.908Z,48.60
2018-01-10T16:06:59.364Z,48.60
2018-01-10T16:09:26.817Z,48.70
2018-01-10T16:11:54.293Z,48.60
2018-01-10T16:14:21.775Z,48.60
2018-01-10T16:16:49.242Z,48.60
2018-01-10T16:19:16.822Z,48.60
2018-01-10T16:21:44.295Z,48.60
2018-01-10T16:24:11.760Z,48.70
2018-01-10T16:26:40.234Z,48.60
2018-01-10T16:29:07.688Z,48.60
2018-01-10T16:31:35.157Z,48.60
2018-01-10T16:34:02.815Z,48.60
2018-01-10T16:36:30.261Z,48.60
2018-01-10T16:38:58.020Z,48.60
2018-01-10T16:41:25.605Z,48.60
2018-01-10T16:43:53.364Z,48.60
2018-01-10T16:46:20.812Z,48.50
2018-01-10T16:48:49.262Z,48.50
2018-01-10T16:51:16.957Z,49.20
2018-01-10T16:53:44.730Z,48.50
2018-01-10T16:56:12.174Z,48.50
2018-01-10T16:58:39.826Z,48.50
2018-01-10T17:01:07.396Z,48.50
2018-01-10T17:03:34.869Z,48.50
2018-01-10T17:06:02.429Z,48.50
2018-01-10T17:08:30.086Z,48.50
2018-01-10T17:10:57.540Z,48.50
2018-01-10T17:13:25.006Z,48.50
2018-01-10T17:15:52.647Z,48.50
2018-01-10T17:18:20.212Z,48.40
2018-01-10T17:20:47.869Z,49.10
2018-01-10T17:23:15.394Z,48.50
2018-01-10T17:25:42.889Z,48.50
2018-01-10T17:28:10.367Z,48.40
2018-01-10T17:30:38.146Z,48.40
2018-01-10T17:33:05.790Z,48.50
2018-01-10T17:35:33.250Z,48.50
2018-01-10T17:38:00.815Z,48.50
2018-01-10T17:40:28.489Z,48.50
2018-01-10T17:42:56.033Z,48.50
2018-01-10T17:45:23.602Z,48.40
2018-01-10T17:47:51.133Z,48.40
2018-01-10T17:50:18.637Z,48.50
2018-01-10T17:52:46.181Z,48.40
2018-01-10T17:55:13.957Z,48.30
2018-01-10T17:57:41.712Z,48.40
2018-01-10T18:00:09.181Z,48.40
2018-01-10T18:02:36.799Z,48.50
2018-01-10T18:05:04.283Z,48.50
2018-01-10T18:07:31.852Z,48.60
2018-01-10T18:10:00.831Z,48.50
2018-01-10T18:12:28.547Z,48.50
2018-01-10T18:14:56.002Z,48.60
2018-01-10T18:17:23.521Z,48.50
2018-01-10T18:19:50.984Z,48.60
2018-01-10T18:22:18.447Z,48.60
2018-01-10T18:24:46.086Z,48.50
2018-01-10T18:27:13.553Z,48.50
2018-01-10T18:29:41.063Z,48.60
2018-01-10T18:32:08.615Z,48.60
2018-01-10T18:34:36.244Z,48.60
2018-01-10T18:37:03.923Z,48.70
2018-01-10T18:39:31.548Z,48.70
2018-01-10T18:41:59.214Z,48.60
2018-01-10T18:44:26.689Z,48.60
2018-01-10T18:46:54.150Z,48.80
2018-01-10T18:49:21.615Z,48.90
2018-01-10T18:51:49.099Z,49.70
2018-01-10T18:54:16.628Z,49.80
2018-01-10T18:56:44.293Z,50.50
2018-01-10T18:59:11.752Z,50.30
2018-01-10T19:01:39.222Z,50.10
2018-01-10T19:04:06.730Z,50.60
2018-01-10T19:06:34.222Z,50.30
2018-01-10T19:09:01.888Z,50.30
2018-01-10T19:11:29.348Z,50.20
2018-01-10T19:13:57.822Z,50.40
2018-01-10T19:16:25.448Z,50.50
2018-01-10T19:18:53.048Z,50.90
2018-01-10T19:21:20.497Z,51.70
2018-01-10T19:23:47.986Z,51.30
2018-01-10T19:26:15.448Z,51.00
2018-01-10T19:28:43.105Z,50.80
2018-01-10T19:31:10.572Z,50.80
2018-01-10T19:33:38.042Z,50.90
2018-01-10T19:36:05.504Z,50.80
2018-01-10T19:38:33.014Z,51.00
2018-01-10T19:41:00.641Z,51.40
2018-01-10T19:43:28.116Z,51.30
2018-01-10T19:45:55.705Z,51.00
2018-01-10T19:48:23.336Z,51.00
2018-01-10T19:50:53.275Z,51.10
2018-01-10T19:53:20.740Z,51.10
2018-01-10T19:55:48.205Z,51.20
2018-01-10T19:58:15.751Z,51.20
2018-01-10T20:00:43.381Z,51.10
2018-01-10T20:03:10.968Z,51.20
2018-01-10T20:05:38.446Z,51.10
2018-01-10T20:08:05.906Z,51.10
2018-01-10T20:10:33.549Z,51.10
2018-01-10T20:13:01.105Z,51.20
2018-01-10T20:15:28.872Z,51.30
2018-01-10T20:17:56.513Z,51.40
2018-01-10T20:20:23.985Z,51.20
2018-01-10T20:22:51.465Z,51.10
2018-01-10T20:25:18.948Z,51.20
2018-01-10T20:27:46.447Z,51.20
2018-01-10T20:30:13.916Z,51.20
2018-01-10T20:32:41.377Z,51.20
2018-01-10T20:35:08.858Z,51.20
2018-01-10T20:37:36.501Z,51.30
2018-01-10T20:40:03.976Z,51.40
2018-01-10T20:42:31.440Z,51.40
2018-01-10T20:44:59.917Z,51.70
2018-01-10T20:47:27.369Z,51.70
2018-01-10T20:49:54.843Z,51.70
2018-01-10T20:52:22.301Z,51.80
2018-01-10T20:54:49.930Z,51.70
2018-01-10T20:57:17.414Z,51.70
2018-01-10T20:59:44.869Z,51.80
2018-01-10T21:02:12.358Z,42.00
2018-01-10T21:04:39.829Z,36.10
2018-01-10T21:07:07.602Z,37.40
2018-01-10T21:09:35.064Z,37.80
2018-01-10T21:12:02.542Z,39.00
2018-01-10T21:14:30.017Z,39.00
2018-01-10T21:16:57.666Z,39.70
2018-01-10T21:19:25.130Z,41.00
2018-01-10T21:21:52.737Z,41.60
2018-01-10T21:24:20.374Z,42.40
2018-01-10T21:26:47.918Z,43.00
2018-01-10T21:29:15.684Z,43.30
2018-01-10T21:31:43.333Z,43.60
2018-01-10T21:34:10.794Z,44.10
2018-01-10T21:36:38.292Z,44.30
2018-01-10T21:39:05.736Z,44.70
2018-01-10T21:41:33.284Z,44.90
2018-01-10T21:44:00.764Z,45.20
2018-01-10T21:46:28.377Z,45.40
2018-01-10T21:48:55.841Z,45.50
2018-01-10T21:51:23.300Z,45.70
2018-01-10T21:53:50.822Z,45.90
2018-01-10T21:56:18.357Z,46.00
2018-01-10T21:58:45.833Z,46.20
2018-01-10T22:01:13.558Z,46.30
2018-01-10T22:03:41.037Z,46.40
2018-01-10T22:06:08.596Z,46.50
2018-01-10T22:08:36.164Z,46.70
2018-01-10T22:11:03.689Z,46.90
2018-01-10T22:13:31.199Z,46.90
2018-01-10T22:15:58.868Z,47.00
2018-01-10T22:18:26.364Z,47.20
2018-01-10T22:20:53.829Z,47.20
2018-01-10T22:23:21.325Z,47.30
2018-01-10T22:25:49.018Z,47.40
2018-01-10T22:28:16.478Z,47.50
2018-01-10T22:30:43.933Z,47.50
2018-01-10T22:33:11.499Z,47.60
2018-01-10T22:35:39.012Z,47.70
2018-01-10T22:38:06.577Z,47.80
2018-01-10T22:40:34.074Z,47.80
2018-01-10T22:43:01.574Z,47.90
2018-01-10T22:45:29.028Z,47.90
2018-01-10T22:47:56.816Z,47.90
2018-01-10T22:50:24.455Z,47.90
2018-01-10T22:52:52.017Z,47.90
2018-01-10T22:55:20.261Z,47.90
2018-01-10T22:57:47.730Z,48.00
2018-01-10T23:00:15.326Z,48.10
2018-01-10T23:02:42.801Z,48.10
2018-01-10T23:05:10.417Z,48.20
2018-01-10T23:07:37.873Z,48.20
2018-01-10T23:10:05.343Z,48.20
2018-01-10T23:12:32.847Z,48.20
2018-01-10T23:15:00.395Z,48.20
2018-01-10T23:17:27.945Z,48.20
2018-01-10T23:19:55.428Z,48.30
2018-01-10T23:22:23.670Z,48.30
2018-01-10T23:24:51.375Z,48.20
2018-01-10T23:27:18.836Z,48.30
2018-01-10T23:29:46.369Z,48.30
2018-01-10T23:32:14.116Z,48.30
2018-01-10T23:34:41.584Z,48.30
2018-01-10T23:37:09.197Z,48.30
2018-01-10T23:39:36.687Z,48.30
2018-01-10T23:42:04.146Z,48.40
2018-01-10T23:44:31.620Z,49.00
2018-01-10T23:46:59.164Z,48.40
2018-01-10T23:49:26.621Z,48.40
2018-01-10T23:51:54.278Z,48.50
2018-01-10T23:54:21.853Z,48.50
2018-01-10T23:56:49.509Z,48.50
2018-01-10T23:59:17.284Z,48.50
